McLain, Mississippi
Current Conditions -  °F | °C
As of 11:53 PM on Wednesday 28 Jan 2015 (Local Time) from KHBG Reporting Station
Clear Clear  
Wind Chill: 43°   Ceiling: Unl
Heat Index: 43°   Visibility: 10mi
Dew Point: 39°   Wind: 0mph
Humidity: 86%   Direction: NA
Pressure: 30.23"   Gusts: NA
Location:  31.11°N, 88.83°W
Report Text: KHBG 290553Z AUTO 00000KT 10SM CLR 06/04 A3023 RMK AO2 SLP236 T00610039 10128 20061 402000011 53002
Loading
Personal Weather Stations






























Interactive Weather Map New forecast layout! Learn more

10-Day Weather Forecast

Advertisements
Track Severe Weather on mobile